Time;durP1;ratioP1;P1;durP2;ratioP2;P2;SDS_P1;SDS_P2;PMS_P1;PMS_P2;Temp;Humidity;BMP_temperature;BMP_pressure;BME280_temperature;BME280_humidity;BME280_pressure;Samples;Min_cycle;Max_cycle;Signal;HPM_P1;HPM_P2
2022/04/13 00:01:11;;;;;;;16.87;15.20;;;;;;;7.31;94.18;101418.72;5034549;28;20455;-46
2022/04/13 00:03:38;;;;;;;19.20;16.57;;;;;;;7.31;94.34;101421.38;5034492;28;20483;-43
2022/04/13 00:06:06;;;;;;;19.43;17.30;;;;;;;7.28;95.20;101411.09;5034864;28;20431;-46
2022/04/13 00:08:34;;;;;;;17.93;16.07;;;;;;;7.28;94.86;101410.25;5034166;28;21051;-48
2022/04/13 00:11:03;;;;;;;22.43;16.60;;;;;;;7.23;95.20;101406.22;5034418;28;20459;-48
2022/04/13 00:13:30;;;;;;;17.23;15.53;;;;;;;7.21;94.81;101400.25;5034644;28;20774;-50
2022/04/13 00:15:58;;;;;;;23.83;16.10;;;;;;;7.19;94.68;101393.47;5034525;28;20459;-46
2022/04/13 00:18:26;;;;;;;17.47;15.93;;;;;;;7.14;94.50;101395.75;5033856;28;20462;-43
2022/04/13 00:20:53;;;;;;;16.97;15.53;;;;;;;7.14;94.64;101390.44;5034233;28;20467;-44
2022/04/13 00:23:21;;;;;;;18.63;16.73;;;;;;;7.12;94.04;101387.94;5034438;28;20483;-47
2022/04/13 00:25:48;;;;;;;16.40;14.70;;;;;;;7.09;93.79;101372.34;5034303;28;20770;-45
2022/04/13 00:28:18;;;;;;;20.80;15.57;;;;;;;7.05;93.44;101389.56;5033787;28;21175;-47
2022/04/13 00:30:46;;;;;;;18.83;16.10;;;;;;;7.04;94.12;101390.56;5033910;28;20452;-43
2022/04/13 00:33:14;;;;;;;19.00;16.20;;;;;;;7.03;93.28;101382.75;5033619;28;20440;-44
2022/04/13 00:35:41;;;;;;;17.83;16.00;;;;;;;7.00;93.73;101368.00;5034293;28;20442;-44
2022/04/13 00:38:09;;;;;;;18.30;16.60;;;;;;;6.97;93.48;101378.09;5033697;28;20817;-45
2022/04/13 00:40:39;;;;;;;17.30;15.47;;;;;;;6.94;93.39;101365.97;5033785;28;20824;-47
2022/04/13 00:43:07;;;;;;;18.40;16.60;;;;;;;6.91;93.12;101363.66;5033845;28;20541;-47
2022/04/13 00:45:36;;;;;;;17.60;15.87;;;;;;;6.88;93.29;101361.31;5030306;28;20440;-47
2022/04/13 00:48:06;;;;;;;16.00;14.60;;;;;;;6.86;93.53;101352.69;5025319;28;20798;-46
2022/04/13 00:50:34;;;;;;;18.40;15.27;;;;;;;6.85;93.45;101352.84;5033727;28;20774;-46
2022/04/13 00:53:02;;;;;;;16.57;15.07;;;;;;;6.83;93.63;101341.56;5033876;28;20432;-48
2022/04/13 00:55:32;;;;;;;17.90;16.13;;;;;;;6.81;93.51;101346.19;5033800;28;20829;-45
2022/04/13 00:58:02;;;;;;;16.40;14.87;;;;;;;6.76;92.93;101346.66;5033120;28;20435;-46
2022/04/13 01:00:29;;;;;;;16.80;15.30;;;;;;;6.76;92.62;101354.59;5033512;28;20438;-49
2022/04/13 01:03:00;;;;;;;22.57;15.03;;;;;;;6.76;93.53;101348.47;5033504;28;20436;-45
2022/04/13 01:05:30;;;;;;;16.77;15.07;;;;;;;6.75;92.98;101358.25;5033714;28;20506;-44
2022/04/13 01:07:58;;;;;;;20.83;15.20;;;;;;;6.76;93.54;101359.91;5033068;28;20933;-44
2022/04/13 01:10:27;;;;;;;16.07;14.70;;;;;;;6.76;93.27;101354.59;5033052;28;20443;-47
2022/04/13 01:12:55;;;;;;;16.03;14.53;;;;;;;6.77;92.98;101355.44;5033625;28;20799;-45
2022/04/13 01:15:23;;;;;;;15.77;14.37;;;;;;;6.76;93.35;101359.91;5033413;28;20439;-46
2022/04/13 01:17:53;;;;;;;19.50;16.10;;;;;;;6.78;93.15;101354.47;5032780;28;20922;-44
2022/04/13 01:20:23;;;;;;;16.80;15.07;;;;;;;6.78;93.60;101363.22;5033074;28;20459;-45
2022/04/13 01:22:52;;;;;;;17.47;15.73;;;;;;;6.79;93.53;101364.91;5033194;28;20468;-49
2022/04/13 01:25:20;;;;;;;16.27;14.77;;;;;;;6.80;93.57;101365.75;5033270;28;20476;-43
2022/04/13 01:27:47;;;;;;;17.37;15.57;;;;;;;6.79;94.02;101367.56;5032811;28;20507;-43
2022/04/13 01:30:16;;;;;;;16.87;14.87;;;;;;;6.77;93.52;101363.41;5032806;28;20432;-44
2022/04/13 01:32:43;;;;;;;19.47;17.30;;;;;;;6.77;93.94;101361.59;5032887;28;20439;-48
2022/04/13 01:35:11;;;;;;;16.83;15.37;;;;;;;6.78;94.19;101359.78;5032834;28;20432;-47
2022/04/13 01:37:39;;;;;;;17.27;15.50;;;;;;;6.78;94.31;101365.88;5033156;28;20436;-47
2022/04/13 01:40:09;;;;;;;15.97;14.50;;;;;;;6.78;93.46;101359.78;5032296;28;21024;-48
2022/04/13 01:42:37;;;;;;;16.80;15.30;;;;;;;6.79;93.78;101353.47;5032594;28;20444;-44
2022/04/13 01:45:05;;;;;;;16.43;14.87;;;;;;;6.80;93.14;101355.13;5028939;28;20803;-45
2022/04/13 01:47:33;;;;;;;14.17;12.97;;;;;;;6.78;93.02;101352.63;5024707;28;20420;-49
2022/04/13 01:50:01;;;;;;;13.80;12.77;;;;;;;6.79;93.07;101354.28;5032137;28;20820;-45
2022/04/13 01:52:28;;;;;;;15.00;13.70;;;;;;;6.80;92.57;101347.19;5032397;28;20463;-49
2022/04/13 01:54:56;;;;;;;16.13;13.90;;;;;;;6.77;92.51;101345.69;5032662;28;20437;-46
2022/04/13 01:57:25;;;;;;;13.63;12.53;;;;;;;6.78;91.93;101346.53;5032623;28;20435;-46
2022/04/13 01:59:52;;;;;;;14.50;13.40;;;;;;;6.77;91.87;101348.34;5032047;28;20471;-44
2022/04/13 02:02:20;;;;;;;14.90;13.70;;;;;;;6.78;91.04;101347.31;5032172;28;20459;-45
2022/04/13 02:04:49;;;;;;;15.00;13.80;;;;;;;6.80;91.23;101345.38;5032633;28;20483;-46
2022/04/13 02:07:16;;;;;;;13.83;12.60;;;;;;;6.78;91.22;101344.66;5032602;28;20432;-46
2022/04/13 02:09:44;;;;;;;15.23;13.90;;;;;;;6.77;91.02;101342.19;5031932;28;20464;-47
2022/04/13 02:12:12;;;;;;;14.90;13.60;;;;;;;6.77;90.41;101334.25;5032075;28;20980;-47
2022/04/13 02:14:41;;;;;;;14.20;13.10;;;;;;;6.76;89.83;101333.41;5032380;28;20805;-46
2022/04/13 02:17:10;;;;;;;16.17;12.63;;;;;;;6.76;90.05;101330.75;5032075;28;20463;-46
2022/04/13 02:19:38;;;;;;;13.97;12.87;;;;;;;6.79;89.20;101335.75;5031828;28;20464;-44
2022/04/13 02:22:06;;;;;;;14.50;13.30;;;;;;;6.81;89.11;101330.31;5031838;28;20833;-47
2022/04/13 02:24:34;;;;;;;13.40;12.10;;;;;;;6.83;88.33;101320.34;5032196;28;20471;-45
2022/04/13 02:27:02;;;;;;;14.00;12.23;;;;;;;6.87;87.70;101327.03;5032137;28;20438;-49
2022/04/13 02:29:30;;;;;;;13.30;12.20;;;;;;;6.93;87.58;101329.03;5031524;28;20471;-46
2022/04/13 02:31:59;;;;;;;12.37;11.47;;;;;;;6.98;86.71;101311.66;5031742;28;20977;-45
2022/04/13 02:34:27;;;;;;;12.53;11.40;;;;;;;7.05;84.19;101302.06;5032189;28;20462;-47
2022/04/13 02:36:54;;;;;;;11.33;10.27;;;;;;;7.13;81.22;101286.19;5032014;28;20428;-44
2022/04/13 02:39:22;;;;;;;10.97;10.17;;;;;;;7.28;78.52;101293.50;5031504;28;20479;-45
2022/04/13 02:41:49;;;;;;;12.40;11.40;;;;;;;7.38;77.36;101296.88;5031440;28;20475;-46
2022/04/13 02:44:17;;;;;;;12.93;11.80;;;;;;;7.47;76.26;101299.34;5031757;28;20498;-43
2022/04/13 02:46:44;;;;;;;13.00;11.90;;;;;;;7.54;75.53;101291.56;5022603;28;20456;-47
2022/04/13 02:49:13;;;;;;;12.50;11.60;;;;;;;7.57;76.25;101297.41;5028849;28;20849;-44
2022/04/13 02:51:41;;;;;;;12.90;11.70;;;;;;;7.60;77.04;101298.88;5031538;28;20447;-46
2022/04/13 02:54:09;;;;;;;13.27;12.00;;;;;;;7.60;77.89;101297.06;5031757;28;20444;-47
2022/04/13 02:56:37;;;;;;;12.50;11.37;;;;;;;7.62;77.74;101308.34;5031117;28;20432;-46
2022/04/13 02:59:04;;;;;;;13.43;12.20;;;;;;;7.70;76.60;101300.41;5031305;28;20825;-48
2022/04/13 03:01:32;;;;;;;11.87;11.00;;;;;;;7.73;76.42;101301.91;5031546;28;20466;-46
2022/04/13 03:04:00;;;;;;;11.90;10.87;;;;;;;7.78;75.04;101294.25;5031751;28;20440;-49
2022/04/13 03:06:29;;;;;;;12.10;11.10;;;;;;;7.85;73.11;101305.91;5031607;28;20992;-47
2022/04/13 03:08:58;;;;;;;12.90;11.57;;;;;;;7.88;73.02;101294.94;5031031;28;20468;-44
2022/04/13 03:11:25;;;;;;;11.47;10.67;;;;;;;7.94;72.61;101299.59;5030594;28;20460;-44
2022/04/13 03:13:53;;;;;;;12.13;11.13;;;;;;;7.98;72.95;101311.53;5031681;28;20436;-49
2022/04/13 03:16:21;;;;;;;10.50;9.70;;;;;;;8.03;73.08;101309.22;5031654;28;20428;-46
2022/04/13 03:18:48;;;;;;;9.93;9.23;;;;;;;8.05;72.62;101312.53;5031031;28;20828;-49
2022/04/13 03:21:16;;;;;;;10.87;9.97;;;;;;;8.09;71.73;101313.03;5031177;28;20507;-46
2022/04/13 03:23:45;;;;;;;11.60;10.13;;;;;;;8.12;71.30;101307.41;5031366;28;20797;-47
2022/04/13 03:26:12;;;;;;;10.40;9.60;;;;;;;8.14;70.64;101300.06;5031611;28;20498;-44
2022/04/13 03:28:40;;;;;;;11.00;9.87;;;;;;;8.14;70.77;101308.03;5030925;28;21019;-46
2022/04/13 03:31:08;;;;;;;10.93;9.97;;;;;;;8.15;71.03;101310.50;5030999;28;21019;-47
2022/04/13 03:33:35;;;;;;;11.97;10.87;;;;;;;8.18;71.10;101318.16;5031444;28;20438;-48
2022/04/13 03:36:03;;;;;;;11.00;10.00;;;;;;;8.19;70.04;101317.16;5031259;28;20428;-45
2022/04/13 03:38:31;;;;;;;10.57;9.77;;;;;;;8.22;70.01;101310.69;5031099;28;20467;-47
2022/04/13 03:41:00;;;;;;;11.37;10.50;;;;;;;8.21;70.90;101315.16;5031241;28;20814;-50
2022/04/13 03:43:27;;;;;;;11.10;10.00;;;;;;;8.24;70.08;101303.41;5031501;28;20842;-45
2022/04/13 03:45:55;;;;;;;12.37;11.00;;;;;;;8.27;69.47;101311.88;5026895;28;20989;-44
2022/04/13 03:48:23;;;;;;;10.70;10.00;;;;;;;8.30;69.45;101302.75;5022558;28;20465;-44
2022/04/13 03:50:53;;;;;;;12.03;10.93;;;;;;;8.32;69.57;101314.88;5030790;28;20463;-47
2022/04/13 03:53:20;;;;;;;11.20;10.10;;;;;;;8.34;69.64;101304.91;5031198;28;20440;-49
2022/04/13 03:55:48;;;;;;;10.30;9.30;;;;;;;8.38;69.68;101293.94;5031338;28;20436;-49
2022/04/13 03:58:17;;;;;;;10.30;9.33;;;;;;;8.39;69.51;101303.56;5030824;28;20470;-46
2022/04/13 04:00:45;;;;;;;10.47;9.47;;;;;;;8.40;69.45;101300.72;5030867;28;20460;-50
2022/04/13 04:03:12;;;;;;;10.80;9.73;;;;;;;8.42;69.79;101306.72;5030822;28;20435;-44
2022/04/13 04:05:41;;;;;;;10.50;9.47;;;;;;;8.42;69.29;101304.06;5030609;28;20479;-45
2022/04/13 04:08:08;;;;;;;10.30;9.30;;;;;;;8.39;69.13;101304.41;5032951;28;20550;-44
2022/04/13 04:10:36;;;;;;;12.27;10.93;;;;;;;8.39;69.09;101303.56;5034391;28;20456;-49
2022/04/13 04:13:03;;;;;;;9.93;9.00;;;;;;;8.36;69.55;101310.06;5034617;28;20424;-47
2022/04/13 04:15:33;;;;;;;10.20;9.20;;;;;;;8.37;69.28;101313.53;5034526;28;21154;-45
2022/04/13 04:18:01;;;;;;;13.00;10.10;;;;;;;8.33;69.22;101323.69;5033825;28;20808;-46
2022/04/13 04:20:29;;;;;;;10.73;9.90;;;;;;;8.29;69.34;101314.38;5034146;28;20479;-48
2022/04/13 04:22:56;;;;;;;11.37;10.10;;;;;;;8.23;69.17;101318.50;5034556;28;20428;-47
2022/04/13 04:25:24;;;;;;;10.37;9.43;;;;;;;8.20;69.73;101325.97;5034270;28;20969;-47
2022/04/13 04:27:52;;;;;;;10.13;9.37;;;;;;;8.13;69.97;101323.16;5033778;28;20938;-45
2022/04/13 04:30:20;;;;;;;13.13;10.60;;;;;;;8.12;69.90;101315.38;5059379;22;20462;-45
2022/04/13 04:32:49;;;;;;;13.53;12.10;;;;;;;8.09;69.63;101321.00;5027834;28;20528;-48
2022/04/13 04:35:16;;;;;;;11.60;10.50;;;;;;;8.05;70.11;101323.16;5032281;28;20436;-46
2022/04/13 04:37:44;;;;;;;12.93;11.80;;;;;;;8.02;70.33;101317.34;5034359;28;20432;-45
2022/04/13 04:40:12;;;;;;;12.20;11.20;;;;;;;8.00;70.55;101328.16;5033642;28;20440;-47
2022/04/13 04:42:46;;;;;;;11.50;10.50;;;;;;;7.99;70.89;101323.00;5014114;28;20444;-44
2022/04/13 04:45:16;;;;;;;10.67;9.87;;;;;;;8.00;70.69;101322.84;5015404;28;20437;-49
2022/04/13 04:47:46;;;;;;;11.23;10.20;;;;;;;8.06;70.89;101329.31;5025197;28;20428;-47
2022/04/13 04:50:15;;;;;;;8.93;8.17;;;;;;;8.11;71.01;101324.31;5033392;28;20432;-44
2022/04/13 04:52:44;;;;;;;10.67;9.67;;;;;;;8.14;70.77;101337.25;5033958;28;20439;-46
2022/04/13 04:55:13;;;;;;;11.10;10.10;;;;;;;8.16;70.66;101335.25;5033597;28;20444;-47
2022/04/13 04:57:41;;;;;;;15.80;9.23;;;;;;;8.22;70.29;101323.97;5034074;28;20523;-45
2022/04/13 05:00:12;;;;;;;9.87;9.10;;;;;;;8.25;69.37;101326.28;5033170;28;20833;-47
2022/04/13 05:02:39;;;;;;;10.03;9.10;;;;;;;8.27;69.42;101321.66;5034088;28;20433;-46
2022/04/13 05:05:08;;;;;;;9.87;9.07;;;;;;;8.31;69.97;101323.00;5033479;28;20436;-45
2022/04/13 05:07:37;;;;;;;10.10;9.20;;;;;;;8.38;69.79;101323.16;5033389;28;20468;-47
2022/04/13 05:10:06;;;;;;;11.87;10.70;;;;;;;8.46;69.75;101329.28;5033117;28;20459;-48
2022/04/13 05:12:42;;;;;;;11.90;10.67;;;;;;;8.55;69.84;101327.44;5033529;28;20452;-45
2022/04/13 05:15:11;;;;;;;11.20;10.00;;;;;;;8.61;69.35;101340.91;5033668;28;20423;-46
2022/04/13 05:17:38;;;;;;;11.70;10.50;;;;;;;8.71;68.82;101346.03;5033032;28;20451;-51
2022/04/13 05:20:08;;;;;;;10.37;9.37;;;;;;;8.79;68.23;101346.00;5032830;28;20547;-48
2022/04/13 05:22:36;;;;;;;10.10;9.30;;;;;;;8.87;68.79;101343.31;5032963;28;20463;-48
2022/04/13 05:25:07;;;;;;;10.33;9.43;;;;;;;8.98;68.71;101339.47;5033344;28;20515;-45
2022/04/13 05:27:35;;;;;;;10.80;9.90;;;;;;;9.07;68.36;101336.63;5033218;28;20479;-47
2022/04/13 05:30:04;;;;;;;11.63;10.50;;;;;;;9.16;67.99;101348.06;5032556;28;20973;-48
2022/04/13 05:32:33;;;;;;;9.53;8.80;;;;;;;9.27;67.98;101340.53;5032572;28;20466;-44
2022/04/13 05:35:01;;;;;;;11.30;9.10;;;;;;;9.40;67.96;101347.94;5032764;28;20432;-45
2022/04/13 05:37:29;;;;;;;9.60;8.77;;;;;;;9.50;67.21;101350.41;5033130;28;20435;-49
2022/04/13 05:39:57;;;;;;;9.63;8.73;;;;;;;9.59;66.42;101354.69;5032368;28;20476;-50
2022/04/13 05:42:32;;;;;;;11.23;10.13;;;;;;;9.74;66.90;101344.91;5032724;28;20484;-48
2022/04/13 05:45:00;;;;;;;11.23;10.33;;;;;;;9.83;66.29;101350.00;5026497;28;20442;-46
2022/04/13 05:47:28;;;;;;;10.60;9.13;;;;;;;9.95;65.67;101348.59;5023558;28;20529;-45
2022/04/13 05:49:56;;;;;;;10.07;9.20;;;;;;;10.06;65.51;101349.19;5032202;28;20478;-48
2022/04/13 05:52:24;;;;;;;9.13;8.43;;;;;;;10.15;65.01;101362.31;5032549;28;20452;-44
2022/04/13 05:54:51;;;;;;;8.30;7.53;;;;;;;10.28;65.67;101361.69;5032681;28;20493;-48
2022/04/13 05:57:19;;;;;;;9.27;8.47;;;;;;;10.39;65.87;101369.28;5032540;28;20775;-47
2022/04/13 05:59:48;;;;;;;14.33;9.70;;;;;;;10.52;65.38;101356.16;5032024;28;20460;-49
2022/04/13 06:02:15;;;;;;;9.83;8.67;;;;;;;10.58;64.31;101366.09;5032705;28;20452;-47
2022/04/13 06:04:43;;;;;;;9.10;8.30;;;;;;;10.72;63.71;101370.59;5032633;28;20436;-45
2022/04/13 06:07:11;;;;;;;8.87;8.00;;;;;;;10.89;63.96;101377.47;5032468;28;20478;-47
2022/04/13 06:09:38;;;;;;;9.57;8.67;;;;;;;11.00;62.58;101373.50;5031964;28;20474;-48
2022/04/13 06:12:07;;;;;;;10.53;9.20;;;;;;;11.14;63.66;101369.97;5032005;28;20758;-45
2022/04/13 06:14:35;;;;;;;9.90;9.07;;;;;;;11.26;62.82;101381.06;5032119;28;20439;-47
2022/04/13 06:17:05;;;;;;;9.00;8.10;;;;;;;11.41;62.87;101373.84;5032639;28;20428;-46
2022/04/13 06:19:32;;;;;;;10.40;9.50;;;;;;;11.51;61.73;101377.88;5031800;28;20470;-47
2022/04/13 06:22:00;;;;;;;8.53;7.93;;;;;;;11.65;61.49;101382.34;5031897;28;20452;-44
2022/04/13 06:24:27;;;;;;;11.23;9.43;;;;;;;11.76;60.52;101382.91;5032229;28;20436;-45
2022/04/13 06:26:55;;;;;;;10.50;9.47;;;;;;;11.82;59.59;101387.50;5031987;28;20483;-44
2022/04/13 06:29:28;;;;;;;10.77;9.87;;;;;;;11.90;58.94;101384.72;5031042;28;20467;-47
2022/04/13 06:31:56;;;;;;;9.83;9.03;;;;;;;11.91;58.48;101397.91;5031448;28;20464;-46
2022/04/13 06:34:25;;;;;;;11.93;9.77;;;;;;;11.98;58.36;101395.28;5032026;28;20440;-45
2022/04/13 06:36:53;;;;;;;9.27;8.57;;;;;;;12.05;58.46;101398.84;5031983;28;20424;-47
2022/04/13 06:39:21;;;;;;;10.03;9.23;;;;;;;12.07;58.65;101396.81;5031544;28;20842;-48
2022/04/13 06:41:48;;;;;;;9.60;8.70;;;;;;;12.08;58.48;101387.78;5031877;28;20810;-45
2022/04/13 06:44:16;;;;;;;10.30;9.43;;;;;;;12.07;57.17;101400.31;5032051;28;20443;-50
2022/04/13 06:46:43;;;;;;;11.53;10.30;;;;;;;12.06;56.50;101392.50;5018780;28;20477;-48
2022/04/13 06:49:16;;;;;;;10.50;9.63;;;;;;;12.05;57.16;101399.69;5029458;28;20514;-49
2022/04/13 06:51:45;;;;;;;10.60;9.73;;;;;;;12.06;57.30;101406.69;5031503;28;20960;-45
2022/04/13 06:54:13;;;;;;;11.13;10.13;;;;;;;12.15;57.46;101404.72;5031537;28;20451;-45
2022/04/13 06:56:40;;;;;;;10.67;9.60;;;;;;;12.19;57.84;101400.63;5031893;28;20435;-49
2022/04/13 06:59:08;;;;;;;18.60;10.10;;;;;;;12.27;57.57;101397.03;5031350;28;20467;-46
2022/04/13 07:01:35;;;;;;;10.83;9.60;;;;;;;12.41;57.61;101401.47;5031414;28;20448;-49
2022/04/13 07:04:03;;;;;;;10.30;9.33;;;;;;;12.47;57.33;101398.84;5031728;28;20439;-48
2022/04/13 07:06:31;;;;;;;10.63;9.70;;;;;;;12.55;56.52;101404.06;5031446;28;20519;-44
2022/04/13 07:09:15;;;;;;;10.83;9.83;;;;;;;12.59;56.55;101405.34;5031183;28;20563;-45
2022/04/13 07:11:43;;;;;;;9.47;8.67;;;;;;;12.69;56.42;101411.16;5031424;28;20452;-48
2022/04/13 07:14:10;;;;;;;10.27;9.27;;;;;;;12.72;56.01;101424.16;5031522;28;20446;-48
2022/04/13 07:16:38;;;;;;;10.07;9.00;;;;;;;12.83;56.50;101425.47;5031476;28;20431;-45
2022/04/13 07:19:06;;;;;;;11.80;10.70;;;;;;;12.97;56.52;101429.06;5030937;28;20464;-45
2022/04/13 07:21:34;;;;;;;11.03;10.03;;;;;;;13.13;56.29;101420.78;5031087;28;20452;-45
2022/04/13 07:24:23;;;;;;;10.33;9.40;;;;;;;13.39;56.25;101426.28;5031298;28;20433;-46
2022/04/13 07:26:50;;;;;;;10.47;9.67;;;;;;;13.60;55.13;101423.50;5031484;28;20474;-45
2022/04/13 07:29:18;;;;;;;10.63;9.50;;;;;;;13.73;55.05;101423.56;5030819;28;20464;-48
2022/04/13 07:31:46;;;;;;;9.67;8.70;;;;;;;13.85;55.08;101430.00;5030971;28;20555;-45
2022/04/13 07:34:13;;;;;;;9.63;8.93;;;;;;;13.93;54.30;101425.47;5031518;28;20455;-44
2022/04/13 07:36:41;;;;;;;10.83;9.83;;;;;;;14.05;54.16;101418.47;5031409;28;20921;-45
2022/04/13 07:39:09;;;;;;;11.10;10.20;;;;;;;14.21;54.18;101416.28;5030929;28;20456;-46
2022/04/13 07:41:37;;;;;;;10.73;9.93;;;;;;;14.31;53.98;101413.16;5032668;28;20458;-44
2022/04/13 07:44:06;;;;;;;11.40;9.30;;;;;;;14.44;53.29;101413.22;5034954;28;20566;-47
2022/04/13 07:46:33;;;;;;;10.30;9.30;;;;;;;14.64;53.32;101418.59;5023500;28;20440;-44
2022/04/13 07:49:01;;;;;;;9.90;9.20;;;;;;;14.81;54.34;101420.63;5030507;28;20470;-48
2022/04/13 07:51:29;;;;;;;10.03;9.20;;;;;;;14.98;53.59;101425.59;5034609;28;20448;-45
2022/04/13 07:53:56;;;;;;;10.10;9.30;;;;;;;15.08;52.27;101428.69;5034788;28;20444;-46
2022/04/13 07:56:24;;;;;;;10.53;9.60;;;;;;;15.38;53.17;101416.44;5034980;28;20801;-44
2022/04/13 07:58:53;;;;;;;11.63;10.43;;;;;;;15.58;51.01;101413.69;5034300;28;20861;-45
2022/04/13 08:01:21;;;;;;;10.50;9.70;;;;;;;15.81;51.62;101412.13;5034625;28;20466;-46
2022/04/13 08:03:48;;;;;;;11.03;10.00;;;;;;;16.00;51.52;101421.97;5034924;28;20452;-46
2022/04/13 08:06:16;;;;;;;9.87;8.87;;;;;;;16.23;50.92;101420.56;5034682;28;20432;-45
2022/04/13 08:08:44;;;;;;;10.60;9.77;;;;;;;16.51;49.02;101432.63;5033944;28;20460;-46
2022/04/13 08:11:11;;;;;;;12.67;9.00;;;;;;;16.67;47.53;101427.72;5034236;28;20448;-46
2022/04/13 08:13:39;;;;;;;10.90;10.00;;;;;;;16.79;48.49;101432.19;5034688;28;20435;-47
2022/04/13 08:16:17;;;;;;;10.33;9.43;;;;;;;16.90;47.45;101436.03;5034735;28;20432;-45
2022/04/13 08:18:45;;;;;;;11.77;10.80;;;;;;;16.89;47.00;101427.13;5034081;28;20463;-48
2022/04/13 08:21:13;;;;;;;12.57;11.43;;;;;;;16.91;47.10;101434.97;5034235;28;20456;-46
2022/04/13 08:23:40;;;;;;;11.20;10.20;;;;;;;17.02;46.44;101432.38;5034289;28;20442;-46
2022/04/13 08:26:08;;;;;;;11.80;10.73;;;;;;;17.20;47.21;101425.38;5034658;28;20432;-45
2022/04/13 08:28:36;;;;;;;10.90;9.63;;;;;;;17.38;47.41;101433.50;5033922;28;20459;-46
2022/04/13 08:31:04;;;;;;;12.37;11.27;;;;;;;17.45;46.66;101428.81;5033883;28;20470;-45
2022/04/13 08:33:33;;;;;;;10.40;9.60;;;;;;;17.65;46.92;101438.34;5034217;28;20440;-47
2022/04/13 08:36:01;;;;;;;10.13;9.20;;;;;;;17.81;45.86;101431.53;5034121;28;20444;-48
2022/04/13 08:38:28;;;;;;;9.83;9.13;;;;;;;17.90;45.21;101438.25;5033475;28;20445;-47
2022/04/13 08:41:08;;;;;;;11.33;10.20;;;;;;;17.82;43.71;101430.50;5033968;28;20458;-46
2022/04/13 08:43:41;;;;;;;10.97;10.10;;;;;;;18.04;46.39;101434.31;5034126;28;20440;-47
2022/04/13 08:46:12;;;;;;;10.73;9.83;;;;;;;18.13;44.53;101432.13;5025638;28;20428;-46
2022/04/13 08:48:42;;;;;;;11.43;10.27;;;;;;;18.33;45.86;101437.25;5026136;28;20546;-46
2022/04/13 08:51:16;;;;;;;10.97;10.07;;;;;;;18.42;44.34;101438.56;5034112;28;20454;-47
2022/04/13 08:53:45;;;;;;;14.17;12.63;;;;;;;18.46;44.10;101437.03;5033053;28;20937;-46
2022/04/13 08:56:18;;;;;;;12.20;11.10;;;;;;;18.61;45.74;101432.88;5033866;28;20432;-47
2022/04/13 08:58:51;;;;;;;14.00;10.77;;;;;;;18.81;44.78;101423.63;5033121;28;20464;-46
2022/04/13 09:01:30;;;;;;;11.87;10.77;;;;;;;18.93;44.59;101425.28;5033423;28;20447;-46
2022/04/13 09:04:06;;;;;;;11.17;10.13;;;;;;;19.03;45.07;101433.59;5033799;28;20435;-45
2022/04/13 09:06:35;;;;;;;10.97;9.97;;;;;;;19.21;44.82;101429.94;5033641;28;20428;-45
2022/04/13 09:09:02;;;;;;;12.30;11.10;;;;;;;19.30;44.09;101428.53;5033061;28;20464;-47
2022/04/13 09:11:31;;;;;;;11.53;10.33;;;;;;;19.32;43.91;101434.53;5033049;28;20455;-47
2022/04/13 09:14:00;;;;;;;12.10;11.03;;;;;;;19.48;43.82;101441.13;5033614;28;20435;-45
2022/04/13 09:16:28;;;;;;;14.30;12.00;;;;;;;19.39;44.21;101440.66;5033512;28;20434;-47
2022/04/13 09:18:55;;;;;;;12.50;11.20;;;;;;;19.49;44.22;101440.06;5033136;28;20877;-48
2022/04/13 09:21:28;;;;;;;13.67;12.27;;;;;;;19.51;44.09;101436.06;5033048;28;20509;-45
2022/04/13 09:23:56;;;;;;;12.70;11.50;;;;;;;19.72;44.08;101443.53;5033366;28;20436;-46
2022/04/13 09:26:25;;;;;;;13.43;12.27;;;;;;;19.71;43.15;101443.78;5033485;28;20463;-45
2022/04/13 09:28:53;;;;;;;14.70;13.27;;;;;;;19.78;42.92;101445.28;5032682;28;20464;-47
2022/04/13 09:31:21;;;;;;;15.20;12.90;;;;;;;19.81;43.71;101449.38;5032846;28;20456;-45
2022/04/13 09:33:49;;;;;;;14.40;12.90;;;;;;;19.72;43.72;101461.66;5033122;28;20797;-45
2022/04/13 09:36:20;;;;;;;13.27;12.00;;;;;;;19.90;44.25;101447.94;5033163;28;20474;-45
2022/04/13 09:38:52;;;;;;;15.20;13.60;;;;;;;19.96;43.66;101456.97;5032394;28;20481;-45
2022/04/13 09:41:19;;;;;;;16.10;14.53;;;;;;;20.06;43.32;101451.78;5032865;28;20448;-45
2022/04/13 09:43:55;;;;;;;17.57;13.77;;;;;;;20.13;42.46;101450.56;5032964;28;20449;-45
2022/04/13 09:46:27;;;;;;;14.43;12.83;;;;;;;20.24;43.35;101454.28;5022775;28;20435;-48
2022/04/13 09:49:08;;;;;;;16.40;13.23;;;;;;;20.27;42.54;101461.97;5027148;28;20569;-45
2022/04/13 09:51:37;;;;;;;14.43;13.17;;;;;;;20.41;43.92;101453.28;5032698;28;20448;-45
2022/04/13 09:54:08;;;;;;;13.93;12.63;;;;;;;20.66;44.25;101457.50;5033048;28;20458;-48
2022/04/13 09:56:37;;;;;;;14.63;13.40;;;;;;;20.72;43.06;101459.22;5033126;28;20432;-46
2022/04/13 09:59:05;;;;;;;15.43;13.83;;;;;;;20.86;42.90;101461.34;5032075;28;20455;-45
2022/04/13 10:01:35;;;;;;;13.13;11.83;;;;;;;20.85;42.16;101467.00;5032202;28;20825;-47
2022/04/13 10:04:04;;;;;;;15.23;12.60;;;;;;;20.89;43.05;101465.47;5032726;28;20443;-47
2022/04/13 10:06:33;;;;;;;16.60;14.00;;;;;;;21.07;42.73;101467.09;5032643;28;20431;-46
2022/04/13 10:09:05;;;;;;;17.87;13.63;;;;;;;21.15;42.48;101469.41;5031924;28;20482;-47
2022/04/13 10:11:35;;;;;;;13.97;12.57;;;;;;;21.28;41.96;101469.91;5032165;28;20474;-45
2022/04/13 10:14:03;;;;;;;14.60;13.17;;;;;;;21.38;41.25;101471.94;5032361;28;20440;-44
2022/04/13 10:16:35;;;;;;;14.90;13.43;;;;;;;21.55;42.52;101474.59;5032641;28;20439;-46
2022/04/13 10:19:05;;;;;;;14.13;12.83;;;;;;;21.68;42.92;101469.63;5031842;28;20458;-48
2022/04/13 10:21:44;;;;;;;15.10;13.13;;;;;;;21.74;42.47;101467.78;5032166;28;20454;-47
2022/04/13 10:24:24;;;;;;;13.77;12.33;;;;;;;21.70;42.41;101466.66;5032289;28;20442;-47
2022/04/13 10:27:02;;;;;;;12.80;11.53;;;;;;;21.68;42.76;101468.81;5032080;28;20431;-46
2022/04/13 10:29:30;;;;;;;17.00;12.67;;;;;;;21.61;42.87;101465.44;5031730;28;20514;-45
2022/04/13 10:32:10;;;;;;;12.10;10.97;;;;;;;21.62;42.92;101467.09;5031664;28;20839;-46
2022/04/13 10:34:39;;;;;;;13.03;11.93;;;;;;;21.67;43.02;101462.56;5032096;28;20442;-48
2022/04/13 10:37:08;;;;;;;14.30;11.90;;;;;;;21.56;43.45;101477.06;5032501;28;20528;-47
2022/04/13 10:39:36;;;;;;;12.07;10.87;;;;;;;21.66;44.23;101477.19;5031513;28;20464;-47
2022/04/13 10:42:09;;;;;;;14.80;12.40;;;;;;;21.55;43.57;101482.72;5031740;28;20542;-51
2022/04/13 10:44:38;;;;;;;13.10;11.00;;;;;;;21.66;44.58;101492.66;5031945;28;20439;-48
2022/04/13 10:47:07;;;;;;;11.03;10.00;;;;;;;21.64;45.30;101486.66;5016889;28;20443;-48
2022/04/13 10:49:44;;;;;;;13.10;11.80;;;;;;;21.57;45.26;101491.44;4991747;28;20477;-45
2022/04/13 10:52:24;;;;;;;14.30;11.00;;;;;;;21.42;45.04;101497.47;4992241;28;20464;-47
2022/04/13 10:54:58;;;;;;;13.83;12.40;;;;;;;21.38;45.47;101499.91;4992524;28;20444;-48
2022/04/13 10:57:35;;;;;;;15.83;12.40;;;;;;;21.30;45.11;101505.72;4992502;28;20486;-48
2022/04/13 11:00:06;;;;;;;13.87;12.77;;;;;;;21.37;45.01;101500.97;4991801;28;20469;-50
2022/04/13 11:02:42;;;;;;;13.67;11.00;;;;;;;21.31;45.25;101501.94;4992431;28;20465;-49
2022/04/13 11:05:10;;;;;;;14.77;13.13;;;;;;;21.29;45.53;101506.00;4992566;28;20484;-49
2022/04/13 11:07:39;;;;;;;12.17;10.90;;;;;;;21.35;45.76;101496.84;4992304;28;20433;-47
2022/04/13 11:10:16;;;;;;;12.57;11.57;;;;;;;21.50;46.14;101494.34;4991605;28;20477;-46
2022/04/13 11:12:46;;;;;;;13.00;11.90;;;;;;;21.75;46.24;101494.69;4992547;28;20447;-48
2022/04/13 11:15:39;;;;;;;13.00;11.80;;;;;;;21.97;46.44;101492.00;4992400;28;20491;-49
2022/04/13 11:18:11;;;;;;;11.07;10.07;;;;;;;21.96;46.43;101498.50;4995878;28;20460;-47
2022/04/13 11:21:04;;;;;;;13.67;12.47;;;;;;;21.94;46.13;101506.09;4995746;28;20479;-51
2022/04/13 11:23:49;;;;;;;12.23;11.23;;;;;;;22.01;45.65;101507.53;4996146;28;20961;-46
2022/04/13 11:26:24;;;;;;;12.07;10.87;;;;;;;22.03;46.19;101513.53;4995998;28;20444;-48